sensor_id;sensor_type;location;lat;lon;timestamp;P1;durP1;ratioP1;P2;durP2;ratioP2
80138;SDS011;69467;59.842;17.604;2023-05-10T00:01:54;4.75;;;3.80;;
80138;SDS011;69467;59.842;17.604;2023-05-10T00:04:20;5.28;;;3.97;;
80138;SDS011;69467;59.842;17.604;2023-05-10T00:06:45;3.25;;;2.95;;
80138;SDS011;69467;59.842;17.604;2023-05-10T00:09:11;4.75;;;3.10;;
80138;SDS011;69467;59.842;17.604;2023-05-10T00:11:36;4.03;;;3.05;;
80138;SDS011;69467;59.842;17.604;2023-05-10T00:14:01;5.00;;;3.08;;
80138;SDS011;69467;59.842;17.604;2023-05-10T00:16:27;3.60;;;3.05;;
80138;SDS011;69467;59.842;17.604;2023-05-10T00:18:53;7.00;;;3.58;;
80138;SDS011;69467;59.842;17.604;2023-05-10T00:21:18;8.23;;;3.03;;
80138;SDS011;69467;59.842;17.604;2023-05-10T00:23:43;3.35;;;2.35;;
80138;SDS011;69467;59.842;17.604;2023-05-10T00:26:09;7.30;;;2.92;;
80138;SDS011;69467;59.842;17.604;2023-05-10T00:28:34;4.20;;;3.80;;
80138;SDS011;69467;59.842;17.604;2023-05-10T00:31:00;4.07;;;3.75;;
80138;SDS011;69467;59.842;17.604;2023-05-10T00:33:25;4.28;;;3.72;;
80138;SDS011;69467;59.842;17.604;2023-05-10T00:35:51;4.20;;;3.28;;
80138;SDS011;69467;59.842;17.604;2023-05-10T00:38:16;6.30;;;3.50;;
80138;SDS011;69467;59.842;17.604;2023-05-10T00:40:42;4.10;;;3.70;;
80138;SDS011;69467;59.842;17.604;2023-05-10T00:43:07;9.55;;;5.28;;
80138;SDS011;69467;59.842;17.604;2023-05-10T00:45:33;7.18;;;3.50;;
80138;SDS011;69467;59.842;17.604;2023-05-10T00:48:01;5.85;;;3.22;;
80138;SDS011;69467;59.842;17.604;2023-05-10T00:52:53;4.43;;;3.17;;
80138;SDS011;69467;59.842;17.604;2023-05-10T00:55:20;5.93;;;3.03;;
80138;SDS011;69467;59.842;17.604;2023-05-10T00:57:46;5.97;;;3.85;;
80138;SDS011;69467;59.842;17.604;2023-05-10T01:00:12;6.57;;;4.28;;
80138;SDS011;69467;59.842;17.604;2023-05-10T01:02:42;3.70;;;3.40;;
80138;SDS011;69467;59.842;17.604;2023-05-10T01:07:34;4.63;;;3.40;;
80138;SDS011;69467;59.842;17.604;2023-05-10T01:09:59;7.15;;;4.18;;
80138;SDS011;69467;59.842;17.604;2023-05-10T01:12:25;7.80;;;3.60;;
80138;SDS011;69467;59.842;17.604;2023-05-10T01:14:51;5.68;;;4.05;;
80138;SDS011;69467;59.842;17.604;2023-05-10T01:17:16;6.43;;;3.47;;
80138;SDS011;69467;59.842;17.604;2023-05-10T01:19:42;4.80;;;3.45;;
80138;SDS011;69467;59.842;17.604;2023-05-10T01:22:12;7.95;;;4.65;;
80138;SDS011;69467;59.842;17.604;2023-05-10T01:27:47;7.70;;;4.63;;
80138;SDS011;69467;59.842;17.604;2023-05-10T01:39:20;12.30;;;4.22;;
80138;SDS011;69467;59.842;17.604;2023-05-10T01:41:51;3.75;;;3.17;;
80138;SDS011;69467;59.842;17.604;2023-05-10T01:44:29;9.13;;;4.72;;
80138;SDS011;69467;59.842;17.604;2023-05-10T01:47:02;6.03;;;4.20;;
80138;SDS011;69467;59.842;17.604;2023-05-10T01:49:32;5.72;;;3.95;;
80138;SDS011;69467;59.842;17.604;2023-05-10T01:52:06;8.93;;;5.03;;
80138;SDS011;69467;59.842;17.604;2023-05-10T01:54:35;7.07;;;4.85;;
80138;SDS011;69467;59.842;17.604;2023-05-10T01:57:08;7.28;;;5.03;;
80138;SDS011;69467;59.842;17.604;2023-05-10T01:59:38;5.32;;;4.03;;
80138;SDS011;69467;59.842;17.604;2023-05-10T02:02:08;9.68;;;3.75;;
80138;SDS011;69467;59.842;17.604;2023-05-10T02:04:37;4.80;;;4.15;;
80138;SDS011;69467;59.842;17.604;2023-05-10T02:07:04;5.07;;;4.28;;
80138;SDS011;69467;59.842;17.604;2023-05-10T02:09:32;6.13;;;4.40;;
80138;SDS011;69467;59.842;17.604;2023-05-10T02:11:59;10.10;;;5.10;;
80138;SDS011;69467;59.842;17.604;2023-05-10T02:14:27;9.40;;;5.03;;
80138;SDS011;69467;59.842;17.604;2023-05-10T02:16:55;7.43;;;5.05;;
80138;SDS011;69467;59.842;17.604;2023-05-10T02:19:23;7.75;;;4.40;;
80138;SDS011;69467;59.842;17.604;2023-05-10T02:21:50;13.45;;;6.15;;
80138;SDS011;69467;59.842;17.604;2023-05-10T02:24:16;6.25;;;5.03;;
80138;SDS011;69467;59.842;17.604;2023-05-10T02:26:44;6.72;;;4.78;;
80138;SDS011;69467;59.842;17.604;2023-05-10T02:29:12;6.53;;;3.78;;
80138;SDS011;69467;59.842;17.604;2023-05-10T02:31:39;6.55;;;4.60;;
80138;SDS011;69467;59.842;17.604;2023-05-10T02:34:08;7.55;;;5.75;;
80138;SDS011;69467;59.842;17.604;2023-05-10T02:36:35;4.85;;;4.40;;
80138;SDS011;69467;59.842;17.604;2023-05-10T02:39:02;9.95;;;6.25;;
80138;SDS011;69467;59.842;17.604;2023-05-10T02:41:29;11.95;;;5.68;;
80138;SDS011;69467;59.842;17.604;2023-05-10T02:43:59;5.45;;;4.95;;
80138;SDS011;69467;59.842;17.604;2023-05-10T02:46:27;7.28;;;5.25;;
80138;SDS011;69467;59.842;17.604;2023-05-10T02:48:53;8.10;;;5.45;;
80138;SDS011;69467;59.842;17.604;2023-05-10T02:51:19;7.57;;;5.38;;
80138;SDS011;69467;59.842;17.604;2023-05-10T02:53:49;8.32;;;5.35;;
80138;SDS011;69467;59.842;17.604;2023-05-10T02:56:25;14.73;;;7.40;;
80138;SDS011;69467;59.842;17.604;2023-05-10T02:58:53;9.25;;;4.32;;
80138;SDS011;69467;59.842;17.604;2023-05-10T03:01:20;8.65;;;6.78;;
80138;SDS011;69467;59.842;17.604;2023-05-10T03:03:45;6.55;;;5.43;;
80138;SDS011;69467;59.842;17.604;2023-05-10T03:06:11;7.47;;;4.57;;
80138;SDS011;69467;59.842;17.604;2023-05-10T03:08:36;7.22;;;4.95;;
80138;SDS011;69467;59.842;17.604;2023-05-10T03:11:15;7.88;;;4.97;;
80138;SDS011;69467;59.842;17.604;2023-05-10T03:16:29;6.93;;;6.22;;
80138;SDS011;69467;59.842;17.604;2023-05-10T03:19:13;6.53;;;4.93;;
80138;SDS011;69467;59.842;17.604;2023-05-10T03:21:47;6.45;;;5.32;;
80138;SDS011;69467;59.842;17.604;2023-05-10T03:24:16;7.03;;;4.63;;
80138;SDS011;69467;59.842;17.604;2023-05-10T03:26:45;7.03;;;4.88;;
80138;SDS011;69467;59.842;17.604;2023-05-10T03:29:11;7.45;;;5.97;;
80138;SDS011;69467;59.842;17.604;2023-05-10T03:31:38;5.20;;;4.63;;
80138;SDS011;69467;59.842;17.604;2023-05-10T03:34:04;5.60;;;4.38;;
80138;SDS011;69467;59.842;17.604;2023-05-10T03:36:30;7.43;;;4.93;;
80138;SDS011;69467;59.842;17.604;2023-05-10T03:38:55;6.82;;;5.47;;
80138;SDS011;69467;59.842;17.604;2023-05-10T03:41:20;5.55;;;4.22;;
80138;SDS011;69467;59.842;17.604;2023-05-10T03:43:46;5.25;;;4.75;;
80138;SDS011;69467;59.842;17.604;2023-05-10T03:46:11;6.45;;;5.50;;
80138;SDS011;69467;59.842;17.604;2023-05-10T03:48:37;10.23;;;5.45;;
80138;SDS011;69467;59.842;17.604;2023-05-10T03:51:02;8.43;;;5.47;;
80138;SDS011;69467;59.842;17.604;2023-05-10T03:53:28;8.60;;;4.53;;
80138;SDS011;69467;59.842;17.604;2023-05-10T03:55:53;7.80;;;4.88;;
80138;SDS011;69467;59.842;17.604;2023-05-10T03:58:18;7.07;;;4.90;;
80138;SDS011;69467;59.842;17.604;2023-05-10T04:00:44;9.30;;;5.40;;
80138;SDS011;69467;59.842;17.604;2023-05-10T04:03:13;7.15;;;5.45;;
80138;SDS011;69467;59.842;17.604;2023-05-10T04:05:39;10.98;;;5.38;;
80138;SDS011;69467;59.842;17.604;2023-05-10T04:08:04;7.38;;;5.53;;
80138;SDS011;69467;59.842;17.604;2023-05-10T04:10:30;10.25;;;5.70;;
80138;SDS011;69467;59.842;17.604;2023-05-10T04:12:55;7.95;;;5.80;;
80138;SDS011;69467;59.842;17.604;2023-05-10T04:15:21;7.65;;;6.13;;
80138;SDS011;69467;59.842;17.604;2023-05-10T04:17:46;5.55;;;4.53;;
80138;SDS011;69467;59.842;17.604;2023-05-10T04:20:12;6.18;;;4.93;;
80138;SDS011;69467;59.842;17.604;2023-05-10T04:22:38;8.18;;;5.22;;
80138;SDS011;69467;59.842;17.604;2023-05-10T04:25:03;6.88;;;4.93;;
80138;SDS011;69467;59.842;17.604;2023-05-10T04:27:29;9.20;;;4.97;;
80138;SDS011;69467;59.842;17.604;2023-05-10T04:29:56;9.38;;;6.25;;
80138;SDS011;69467;59.842;17.604;2023-05-10T04:32:21;6.28;;;5.10;;
80138;SDS011;69467;59.842;17.604;2023-05-10T04:34:47;5.32;;;4.05;;
80138;SDS011;69467;59.842;17.604;2023-05-10T04:37:12;8.23;;;4.90;;
80138;SDS011;69467;59.842;17.604;2023-05-10T04:39:37;12.48;;;5.03;;
80138;SDS011;69467;59.842;17.604;2023-05-10T04:42:03;5.20;;;4.35;;
80138;SDS011;69467;59.842;17.604;2023-05-10T04:44:30;7.75;;;5.18;;
80138;SDS011;69467;59.842;17.604;2023-05-10T04:46:56;8.98;;;4.88;;
80138;SDS011;69467;59.842;17.604;2023-05-10T04:49:22;6.03;;;4.10;;
80138;SDS011;69467;59.842;17.604;2023-05-10T04:51:47;7.03;;;3.88;;
80138;SDS011;69467;59.842;17.604;2023-05-10T04:54:13;8.48;;;4.63;;
80138;SDS011;69467;59.842;17.604;2023-05-10T04:56:38;8.48;;;5.65;;
80138;SDS011;69467;59.842;17.604;2023-05-10T04:59:04;8.95;;;4.38;;
80138;SDS011;69467;59.842;17.604;2023-05-10T05:01:29;7.05;;;4.10;;
80138;SDS011;69467;59.842;17.604;2023-05-10T05:03:54;7.07;;;4.47;;
80138;SDS011;69467;59.842;17.604;2023-05-10T05:06:20;9.65;;;5.07;;
80138;SDS011;69467;59.842;17.604;2023-05-10T05:08:49;8.30;;;4.93;;
80138;SDS011;69467;59.842;17.604;2023-05-10T05:11:15;6.00;;;4.03;;
80138;SDS011;69467;59.842;17.604;2023-05-10T05:13:41;7.53;;;4.40;;
80138;SDS011;69467;59.842;17.604;2023-05-10T05:16:06;5.38;;;4.57;;
80138;SDS011;69467;59.842;17.604;2023-05-10T05:18:32;7.95;;;3.92;;
80138;SDS011;69467;59.842;17.604;2023-05-10T05:20:57;5.75;;;4.05;;
80138;SDS011;69467;59.842;17.604;2023-05-10T05:23:22;9.70;;;5.72;;
80138;SDS011;69467;59.842;17.604;2023-05-10T05:25:51;6.07;;;3.92;;
80138;SDS011;69467;59.842;17.604;2023-05-10T05:28:17;7.38;;;4.50;;
80138;SDS011;69467;59.842;17.604;2023-05-10T05:30:43;12.73;;;4.43;;
80138;SDS011;69467;59.842;17.604;2023-05-10T05:33:08;6.40;;;4.32;;
80138;SDS011;69467;59.842;17.604;2023-05-10T05:35:33;7.10;;;4.78;;
80138;SDS011;69467;59.842;17.604;2023-05-10T05:37:59;7.10;;;4.90;;
80138;SDS011;69467;59.842;17.604;2023-05-10T05:40:24;5.65;;;3.97;;
80138;SDS011;69467;59.842;17.604;2023-05-10T05:42:50;6.07;;;4.25;;
80138;SDS011;69467;59.842;17.604;2023-05-10T05:45:15;8.60;;;5.30;;
80138;SDS011;69467;59.842;17.604;2023-05-10T05:47:41;4.43;;;4.03;;
80138;SDS011;69467;59.842;17.604;2023-05-10T05:50:06;5.45;;;4.07;;
80138;SDS011;69467;59.842;17.604;2023-05-10T05:52:32;7.72;;;4.43;;
80138;SDS011;69467;59.842;17.604;2023-05-10T05:54:57;7.63;;;4.45;;
80138;SDS011;69467;59.842;17.604;2023-05-10T05:57:23;5.03;;;2.90;;
80138;SDS011;69467;59.842;17.604;2023-05-10T05:59:48;18.95;;;5.13;;
80138;SDS011;69467;59.842;17.604;2023-05-10T06:02:14;7.68;;;4.03;;
80138;SDS011;69467;59.842;17.604;2023-05-10T06:04:39;5.40;;;3.47;;
80138;SDS011;69467;59.842;17.604;2023-05-10T06:07:04;7.38;;;4.47;;
80138;SDS011;69467;59.842;17.604;2023-05-10T06:09:30;7.18;;;3.65;;
80138;SDS011;69467;59.842;17.604;2023-05-10T06:11:56;8.25;;;3.47;;
80138;SDS011;69467;59.842;17.604;2023-05-10T06:14:22;6.03;;;3.15;;
80138;SDS011;69467;59.842;17.604;2023-05-10T06:16:47;6.15;;;3.60;;
80138;SDS011;69467;59.842;17.604;2023-05-10T06:19:12;8.93;;;3.42;;
80138;SDS011;69467;59.842;17.604;2023-05-10T06:21:38;3.38;;;2.92;;
80138;SDS011;69467;59.842;17.604;2023-05-10T06:24:03;8.20;;;3.70;;
80138;SDS011;69467;59.842;17.604;2023-05-10T06:26:30;7.53;;;3.35;;
80138;SDS011;69467;59.842;17.604;2023-05-10T06:28:56;7.43;;;3.72;;
80138;SDS011;69467;59.842;17.604;2023-05-10T06:31:21;10.55;;;4.32;;
80138;SDS011;69467;59.842;17.604;2023-05-10T06:33:47;7.00;;;4.13;;
80138;SDS011;69467;59.842;17.604;2023-05-10T06:36:12;8.50;;;3.45;;
80138;SDS011;69467;59.842;17.604;2023-05-10T06:38:38;8.82;;;3.30;;
80138;SDS011;69467;59.842;17.604;2023-05-10T06:41:03;6.75;;;3.38;;
80138;SDS011;69467;59.842;17.604;2023-05-10T06:43:29;6.35;;;3.83;;
80138;SDS011;69467;59.842;17.604;2023-05-10T06:45:55;10.00;;;3.72;;
80138;SDS011;69467;59.842;17.604;2023-05-10T06:48:20;15.13;;;4.30;;
80138;SDS011;69467;59.842;17.604;2023-05-10T06:50:46;6.05;;;3.63;;
80138;SDS011;69467;59.842;17.604;2023-05-10T06:53:11;11.48;;;3.45;;
80138;SDS011;69467;59.842;17.604;2023-05-10T06:55:37;5.70;;;5.03;;
80138;SDS011;69467;59.842;17.604;2023-05-10T06:58:02;6.88;;;3.55;;
80138;SDS011;69467;59.842;17.604;2023-05-10T07:00:28;6.00;;;3.78;;
80138;SDS011;69467;59.842;17.604;2023-05-10T07:02:53;4.85;;;3.13;;
80138;SDS011;69467;59.842;17.604;2023-05-10T07:07:45;6.72;;;4.13;;
80138;SDS011;69467;59.842;17.604;2023-05-10T07:10:10;6.07;;;3.30;;
80138;SDS011;69467;59.842;17.604;2023-05-10T07:12:36;10.27;;;3.63;;
80138;SDS011;69467;59.842;17.604;2023-05-10T07:15:01;12.65;;;4.03;;
80138;SDS011;69467;59.842;17.604;2023-05-10T07:17:27;3.17;;;2.88;;
80138;SDS011;69467;59.842;17.604;2023-05-10T07:19:52;8.80;;;3.88;;
80138;SDS011;69467;59.842;17.604;2023-05-10T07:22:18;10.18;;;3.55;;
80138;SDS011;69467;59.842;17.604;2023-05-10T07:24:43;7.75;;;3.42;;
80138;SDS011;69467;59.842;17.604;2023-05-10T07:27:09;10.95;;;3.47;;
80138;SDS011;69467;59.842;17.604;2023-05-10T07:29:35;5.55;;;3.47;;
80138;SDS011;69467;59.842;17.604;2023-05-10T07:34:26;5.03;;;4.13;;
80138;SDS011;69467;59.842;17.604;2023-05-10T07:36:52;8.90;;;4.20;;
80138;SDS011;69467;59.842;17.604;2023-05-10T07:41:43;5.88;;;3.80;;
80138;SDS011;69467;59.842;17.604;2023-05-10T07:44:08;4.50;;;3.65;;
80138;SDS011;69467;59.842;17.604;2023-05-10T07:46:34;3.92;;;3.47;;
80138;SDS011;69467;59.842;17.604;2023-05-10T07:48:59;7.50;;;3.53;;
80138;SDS011;69467;59.842;17.604;2023-05-10T07:51:24;8.77;;;3.17;;
80138;SDS011;69467;59.842;17.604;2023-05-10T07:53:50;6.60;;;3.35;;
80138;SDS011;69467;59.842;17.604;2023-05-10T07:56:34;10.65;;;3.33;;
80138;SDS011;69467;59.842;17.604;2023-05-10T07:59:00;9.38;;;3.42;;
80138;SDS011;69467;59.842;17.604;2023-05-10T08:01:26;5.65;;;3.50;;
80138;SDS011;69467;59.842;17.604;2023-05-10T08:03:55;8.38;;;3.50;;
80138;SDS011;69467;59.842;17.604;2023-05-10T08:08:46;6.72;;;3.08;;
80138;SDS011;69467;59.842;17.604;2023-05-10T08:11:14;3.55;;;3.08;;
80138;SDS011;69467;59.842;17.604;2023-05-10T08:13:41;6.90;;;3.65;;
80138;SDS011;69467;59.842;17.604;2023-05-10T08:20:57;4.47;;;2.67;;
80138;SDS011;69467;59.842;17.604;2023-05-10T08:23:22;3.90;;;3.00;;
80138;SDS011;69467;59.842;17.604;2023-05-10T08:25:48;4.68;;;2.42;;
80138;SDS011;69467;59.842;17.604;2023-05-10T08:28:13;12.35;;;3.05;;
80138;SDS011;69467;59.842;17.604;2023-05-10T08:33:04;8.90;;;4.28;;
80138;SDS011;69467;59.842;17.604;2023-05-10T08:37:55;12.23;;;3.47;;
80138;SDS011;69467;59.842;17.604;2023-05-10T08:40:21;9.20;;;3.47;;
80138;SDS011;69467;59.842;17.604;2023-05-10T08:42:57;9.00;;;3.65;;
80138;SDS011;69467;59.842;17.604;2023-05-10T08:45:32;5.15;;;3.45;;
80138;SDS011;69467;59.842;17.604;2023-05-10T08:47:59;8.05;;;3.08;;
80138;SDS011;69467;59.842;17.604;2023-05-10T08:50:26;12.25;;;4.70;;
80138;SDS011;69467;59.842;17.604;2023-05-10T08:55:20;6.82;;;2.92;;
80138;SDS011;69467;59.842;17.604;2023-05-10T08:57:48;10.82;;;3.92;;
80138;SDS011;69467;59.842;17.604;2023-05-10T09:02:39;8.77;;;3.85;;
80138;SDS011;69467;59.842;17.604;2023-05-10T09:05:07;9.50;;;4.15;;
80138;SDS011;69467;59.842;17.604;2023-05-10T09:07:33;17.40;;;4.10;;
80138;SDS011;69467;59.842;17.604;2023-05-10T09:12:24;4.50;;;3.15;;
80138;SDS011;69467;59.842;17.604;2023-05-10T09:17:17;5.65;;;2.70;;
80138;SDS011;69467;59.842;17.604;2023-05-10T09:24:33;6.60;;;2.87;;
80138;SDS011;69467;59.842;17.604;2023-05-10T09:26:58;5.57;;;2.78;;
80138;SDS011;69467;59.842;17.604;2023-05-10T09:31:50;5.70;;;3.08;;
80138;SDS011;69467;59.842;17.604;2023-05-10T09:34:20;12.60;;;3.35;;
80138;SDS011;69467;59.842;17.604;2023-05-10T09:36:54;7.32;;;3.00;;
80138;SDS011;69467;59.842;17.604;2023-05-10T09:42:06;19.70;;;7.05;;
80138;SDS011;69467;59.842;17.604;2023-05-10T09:44:34;7.22;;;2.80;;
80138;SDS011;69467;59.842;17.604;2023-05-10T09:47:03;6.75;;;3.55;;
80138;SDS011;69467;59.842;17.604;2023-05-10T09:49:29;4.95;;;3.13;;
80138;SDS011;69467;59.842;17.604;2023-05-10T09:52:01;7.28;;;3.55;;
80138;SDS011;69467;59.842;17.604;2023-05-10T09:54:33;10.00;;;3.95;;
80138;SDS011;69467;59.842;17.604;2023-05-10T09:56:59;7.10;;;3.63;;
80138;SDS011;69467;59.842;17.604;2023-05-10T09:59:26;5.63;;;3.35;;
80138;SDS011;69467;59.842;17.604;2023-05-10T10:01:57;16.70;;;3.53;;
80138;SDS011;69467;59.842;17.604;2023-05-10T10:04:23;3.78;;;2.78;;
80138;SDS011;69467;59.842;17.604;2023-05-10T10:09:24;3.45;;;2.90;;
80138;SDS011;69467;59.842;17.604;2023-05-10T10:11:50;6.07;;;2.75;;
80138;SDS011;69467;59.842;17.604;2023-05-10T10:16:43;7.95;;;2.92;;
80138;SDS011;69467;59.842;17.604;2023-05-10T10:21:34;14.43;;;5.82;;
80138;SDS011;69467;59.842;17.604;2023-05-10T10:31:34;6.60;;;2.60;;
80138;SDS011;69467;59.842;17.604;2023-05-10T10:34:06;6.68;;;2.92;;
80138;SDS011;69467;59.842;17.604;2023-05-10T10:36:54;6.57;;;2.90;;
80138;SDS011;69467;59.842;17.604;2023-05-10T10:39:19;6.50;;;4.68;;
80138;SDS011;69467;59.842;17.604;2023-05-10T10:41:52;4.60;;;2.25;;
80138;SDS011;69467;59.842;17.604;2023-05-10T10:44:22;6.05;;;2.70;;
80138;SDS011;69467;59.842;17.604;2023-05-10T10:49:52;5.75;;;2.47;;
80138;SDS011;69467;59.842;17.604;2023-05-10T10:55:19;8.10;;;2.90;;
80138;SDS011;69467;59.842;17.604;2023-05-10T10:57:53;8.95;;;3.50;;
80138;SDS011;69467;59.842;17.604;2023-05-10T11:00:32;5.72;;;3.25;;
80138;SDS011;69467;59.842;17.604;2023-05-10T11:05:39;9.52;;;3.05;;
80138;SDS011;69467;59.842;17.604;2023-05-10T11:08:12;6.72;;;2.70;;
80138;SDS011;69467;59.842;17.604;2023-05-10T11:11:16;5.25;;;3.40;;
80138;SDS011;69467;59.842;17.604;2023-05-10T11:13:44;4.28;;;2.15;;
80138;SDS011;69467;59.842;17.604;2023-05-10T11:21:28;15.13;;;3.88;;
80138;SDS011;69467;59.842;17.604;2023-05-10T11:23:55;12.38;;;3.63;;
80138;SDS011;69467;59.842;17.604;2023-05-10T11:26:26;5.22;;;2.22;;
80138;SDS011;69467;59.842;17.604;2023-05-10T11:28:59;7.10;;;2.88;;
80138;SDS011;69467;59.842;17.604;2023-05-10T11:31:26;7.47;;;3.25;;
80138;SDS011;69467;59.842;17.604;2023-05-10T11:33:53;7.20;;;2.88;;
80138;SDS011;69467;59.842;17.604;2023-05-10T11:36:24;3.72;;;2.35;;
80138;SDS011;69467;59.842;17.604;2023-05-10T11:38:51;8.00;;;2.63;;
80138;SDS011;69467;59.842;17.604;2023-05-10T11:43:43;8.27;;;2.67;;
80138;SDS011;69467;59.842;17.604;2023-05-10T11:46:12;6.53;;;2.83;;
80138;SDS011;69467;59.842;17.604;2023-05-10T11:48:38;12.38;;;3.08;;
80138;SDS011;69467;59.842;17.604;2023-05-10T11:51:04;10.00;;;4.00;;
80138;SDS011;69467;59.842;17.604;2023-05-10T11:53:32;3.70;;;2.65;;
80138;SDS011;69467;59.842;17.604;2023-05-10T11:58:37;7.20;;;3.20;;
80138;SDS011;69467;59.842;17.604;2023-05-10T12:01:04;6.53;;;2.33;;
80138;SDS011;69467;59.842;17.604;2023-05-10T12:03:31;11.30;;;2.80;;
80138;SDS011;69467;59.842;17.604;2023-05-10T12:05:58;12.77;;;2.75;;
80138;SDS011;69467;59.842;17.604;2023-05-10T12:08:25;6.85;;;3.17;;
80138;SDS011;69467;59.842;17.604;2023-05-10T12:10:51;10.02;;;3.42;;
80138;SDS011;69467;59.842;17.604;2023-05-10T12:13:18;10.68;;;4.05;;
80138;SDS011;69467;59.842;17.604;2023-05-10T12:15:45;10.20;;;3.63;;
80138;SDS011;69467;59.842;17.604;2023-05-10T12:20:39;5.85;;;2.67;;
80138;SDS011;69467;59.842;17.604;2023-05-10T12:23:07;6.45;;;2.45;;
80138;SDS011;69467;59.842;17.604;2023-05-10T12:25:34;5.72;;;2.60;;
80138;SDS011;69467;59.842;17.604;2023-05-10T12:28:04;5.97;;;3.38;;
80138;SDS011;69467;59.842;17.604;2023-05-10T12:30:32;4.65;;;2.22;;
80138;SDS011;69467;59.842;17.604;2023-05-10T12:33:09;7.35;;;3.28;;
80138;SDS011;69467;59.842;17.604;2023-05-10T12:35:48;5.28;;;2.50;;
80138;SDS011;69467;59.842;17.604;2023-05-10T12:41:04;8.18;;;3.03;;
80138;SDS011;69467;59.842;17.604;2023-05-10T12:43:34;10.23;;;2.53;;
80138;SDS011;69467;59.842;17.604;2023-05-10T12:46:09;5.88;;;2.50;;
80138;SDS011;69467;59.842;17.604;2023-05-10T12:48:36;5.35;;;2.72;;
80138;SDS011;69467;59.842;17.604;2023-05-10T12:51:03;3.40;;;2.28;;
80138;SDS011;69467;59.842;17.604;2023-05-10T12:53:30;8.30;;;2.63;;
80138;SDS011;69467;59.842;17.604;2023-05-10T12:55:56;11.23;;;2.65;;
80138;SDS011;69467;59.842;17.604;2023-05-10T13:00:47;10.40;;;3.33;;
80138;SDS011;69467;59.842;17.604;2023-05-10T13:05:37;4.80;;;2.33;;
80138;SDS011;69467;59.842;17.604;2023-05-10T13:10:29;6.15;;;1.95;;
80138;SDS011;69467;59.842;17.604;2023-05-10T13:12:56;4.38;;;2.70;;
80138;SDS011;69467;59.842;17.604;2023-05-10T13:15:22;8.07;;;2.78;;
80138;SDS011;69467;59.842;17.604;2023-05-10T13:20:13;13.23;;;2.17;;
80138;SDS011;69467;59.842;17.604;2023-05-10T13:25:06;7.47;;;2.50;;
80138;SDS011;69467;59.842;17.604;2023-05-10T13:29:57;11.00;;;2.80;;
80138;SDS011;69467;59.842;17.604;2023-05-10T13:32:24;5.32;;;2.20;;
80138;SDS011;69467;59.842;17.604;2023-05-10T13:34:50;10.98;;;2.88;;
80138;SDS011;69467;59.842;17.604;2023-05-10T13:39:41;5.93;;;2.75;;
80138;SDS011;69467;59.842;17.604;2023-05-10T13:44:32;4.37;;;3.60;;
80138;SDS011;69467;59.842;17.604;2023-05-10T13:46:58;7.03;;;2.10;;
80138;SDS011;69467;59.842;17.604;2023-05-10T13:51:49;9.73;;;2.60;;
80138;SDS011;69467;59.842;17.604;2023-05-10T13:54:15;2.80;;;2.50;;
80138;SDS011;69467;59.842;17.604;2023-05-10T13:56:44;10.38;;;3.03;;
80138;SDS011;69467;59.842;17.604;2023-05-10T13:59:12;8.90;;;2.47;;
80138;SDS011;69467;59.842;17.604;2023-05-10T14:01:38;4.95;;;2.08;;
80138;SDS011;69467;59.842;17.604;2023-05-10T14:06:30;2.85;;;2.45;;
80138;SDS011;69467;59.842;17.604;2023-05-10T14:13:46;6.18;;;2.55;;
80138;SDS011;69467;59.842;17.604;2023-05-10T14:18:39;9.43;;;3.03;;
80138;SDS011;69467;59.842;17.604;2023-05-10T14:23:30;4.65;;;2.28;;
80138;SDS011;69467;59.842;17.604;2023-05-10T14:28:21;6.30;;;1.80;;
80138;SDS011;69467;59.842;17.604;2023-05-10T14:30:47;19.13;;;3.35;;
80138;SDS011;69467;59.842;17.604;2023-05-10T14:38:03;6.90;;;2.25;;
80138;SDS011;69467;59.842;17.604;2023-05-10T14:45:21;6.55;;;2.38;;
80138;SDS011;69467;59.842;17.604;2023-05-10T14:47:47;8.05;;;2.97;;
80138;SDS011;69467;59.842;17.604;2023-05-10T14:50:13;8.50;;;2.55;;
80138;SDS011;69467;59.842;17.604;2023-05-10T14:57:30;4.20;;;2.63;;
80138;SDS011;69467;59.842;17.604;2023-05-10T15:04:46;6.68;;;2.83;;
80138;SDS011;69467;59.842;17.604;2023-05-10T15:09:39;9.48;;;3.17;;
80138;SDS011;69467;59.842;17.604;2023-05-10T15:14:30;5.88;;;2.50;;
80138;SDS011;69467;59.842;17.604;2023-05-10T15:19:21;9.15;;;3.95;;
80138;SDS011;69467;59.842;17.604;2023-05-10T15:24:12;7.47;;;3.25;;
80138;SDS011;69467;59.842;17.604;2023-05-10T15:29:03;3.30;;;2.33;;
80138;SDS011;69467;59.842;17.604;2023-05-10T15:33:57;5.13;;;2.17;;
80138;SDS011;69467;59.842;17.604;2023-05-10T15:36:25;10.82;;;3.05;;
80138;SDS011;69467;59.842;17.604;2023-05-10T15:41:16;14.77;;;3.07;;
80138;SDS011;69467;59.842;17.604;2023-05-10T15:46:07;6.93;;;2.22;;
80138;SDS011;69467;59.842;17.604;2023-05-10T15:50:57;11.77;;;2.63;;
80138;SDS011;69467;59.842;17.604;2023-05-10T15:55:48;3.47;;;2.03;;
80138;SDS011;69467;59.842;17.604;2023-05-10T16:00:39;6.35;;;1.65;;
80138;SDS011;69467;59.842;17.604;2023-05-10T16:03:04;3.00;;;1.70;;
80138;SDS011;69467;59.842;17.604;2023-05-10T16:05:30;4.50;;;1.95;;
80138;SDS011;69467;59.842;17.604;2023-05-10T16:07:57;3.42;;;2.25;;
80138;SDS011;69467;59.842;17.604;2023-05-10T16:12:48;4.10;;;2.15;;
80138;SDS011;69467;59.842;17.604;2023-05-10T16:15:14;6.40;;;2.15;;
80138;SDS011;69467;59.842;17.604;2023-05-10T16:20:05;9.02;;;2.08;;
80138;SDS011;69467;59.842;17.604;2023-05-10T16:24:56;4.10;;;2.40;;
80138;SDS011;69467;59.842;17.604;2023-05-10T16:27:23;7.45;;;2.47;;
80138;SDS011;69467;59.842;17.604;2023-05-10T16:32:13;8.80;;;2.67;;
80138;SDS011;69467;59.842;17.604;2023-05-10T16:34:39;9.48;;;3.28;;
80138;SDS011;69467;59.842;17.604;2023-05-10T16:37:04;4.65;;;2.22;;
80138;SDS011;69467;59.842;17.604;2023-05-10T16:39:30;3.83;;;1.98;;
80138;SDS011;69467;59.842;17.604;2023-05-10T16:44:20;2.40;;;1.63;;
80138;SDS011;69467;59.842;17.604;2023-05-10T16:46:46;8.40;;;2.78;;
80138;SDS011;69467;59.842;17.604;2023-05-10T16:51:37;9.18;;;2.03;;
80138;SDS011;69467;59.842;17.604;2023-05-10T16:56:28;2.20;;;2.00;;
80138;SDS011;69467;59.842;17.604;2023-05-10T17:01:19;11.10;;;2.80;;
80138;SDS011;69467;59.842;17.604;2023-05-10T17:03:45;4.90;;;2.38;;
80138;SDS011;69467;59.842;17.604;2023-05-10T17:08:36;5.53;;;3.20;;
80138;SDS011;69467;59.842;17.604;2023-05-10T17:15:53;10.60;;;5.43;;
80138;SDS011;69467;59.842;17.604;2023-05-10T17:18:18;7.53;;;1.90;;
80138;SDS011;69467;59.842;17.604;2023-05-10T17:20:43;12.18;;;3.35;;
80138;SDS011;69467;59.842;17.604;2023-05-10T17:23:09;21.33;;;3.35;;
80138;SDS011;69467;59.842;17.604;2023-05-10T17:25:35;10.25;;;3.22;;
80138;SDS011;69467;59.842;17.604;2023-05-10T17:28:01;4.03;;;2.10;;
80138;SDS011;69467;59.842;17.604;2023-05-10T17:30:27;3.40;;;1.80;;
80138;SDS011;69467;59.842;17.604;2023-05-10T17:32:56;4.57;;;2.35;;
80138;SDS011;69467;59.842;17.604;2023-05-10T17:35:25;6.82;;;2.30;;
80138;SDS011;69467;59.842;17.604;2023-05-10T17:42:42;6.70;;;2.28;;
80138;SDS011;69467;59.842;17.604;2023-05-10T17:45:07;5.95;;;1.83;;
80138;SDS011;69467;59.842;17.604;2023-05-10T17:47:33;4.25;;;2.00;;
80138;SDS011;69467;59.842;17.604;2023-05-10T17:49:59;2.65;;;1.63;;
80138;SDS011;69467;59.842;17.604;2023-05-10T17:52:24;4.22;;;2.65;;
80138;SDS011;69467;59.842;17.604;2023-05-10T17:54:50;3.33;;;2.10;;
80138;SDS011;69467;59.842;17.604;2023-05-10T17:57:16;5.35;;;2.28;;
80138;SDS011;69467;59.842;17.604;2023-05-10T18:02:07;5.85;;;2.08;;
80138;SDS011;69467;59.842;17.604;2023-05-10T18:04:33;4.47;;;1.83;;
80138;SDS011;69467;59.842;17.604;2023-05-10T18:06:58;5.80;;;2.53;;